College Heights Durango, Colorado
Current Conditions -  °F | °C
As of 4:53 PM on Sunday 21 Dec 2014 (Local Time) from KDRO Reporting Station
Clear Clear  
Wind Chill: 28°   Ceiling: Unl
Heat Index: 34°   Visibility: 10mi
Dew Point: 28°   Wind: 7mph
Humidity: 79%   Direction: 70°ENE
Pressure: 29.93"   Gusts: NA
Location:  37.1483°N, 107.911°W
Report Text: KDRO 212353Z AUTO 07006KT 10SM CLR 01/M02 A2993 RMK AO2 SLP157 T00111022 10039 21017 56007
Loading
Personal Weather Stations






























Interactive Weather Map New forecast layout! Learn more

10-Day Weather Forecast

Advertisements
Track Severe Weather on mobile